sensor_id;sensor_type;location;lat;lon;timestamp;P1;durP1;ratioP1;P2;durP2;ratioP2
76604;SDS011;65496;50.978;16.998;2023-03-13T00:01:23;3.42;;;2.60;;
76604;SDS011;65496;50.978;16.998;2023-03-13T00:03:51;4.07;;;2.97;;
76604;SDS011;65496;50.978;16.998;2023-03-13T00:06:20;3.80;;;2.67;;
76604;SDS011;65496;50.978;16.998;2023-03-13T00:08:48;3.70;;;2.50;;
76604;SDS011;65496;50.978;16.998;2023-03-13T00:11:15;4.68;;;3.05;;
76604;SDS011;65496;50.978;16.998;2023-03-13T00:13:41;4.35;;;3.13;;
76604;SDS011;65496;50.978;16.998;2023-03-13T00:16:09;3.95;;;2.60;;
76604;SDS011;65496;50.978;16.998;2023-03-13T00:18:37;4.63;;;2.78;;
76604;SDS011;65496;50.978;16.998;2023-03-13T00:21:04;4.43;;;2.60;;
76604;SDS011;65496;50.978;16.998;2023-03-13T00:23:32;5.20;;;2.72;;
76604;SDS011;65496;50.978;16.998;2023-03-13T00:26:00;3.78;;;2.58;;
76604;SDS011;65496;50.978;16.998;2023-03-13T00:28:29;4.50;;;2.50;;
76604;SDS011;65496;50.978;16.998;2023-03-13T00:31:00;4.30;;;2.67;;
76604;SDS011;65496;50.978;16.998;2023-03-13T00:33:36;5.07;;;2.72;;
76604;SDS011;65496;50.978;16.998;2023-03-13T00:36:05;3.88;;;2.40;;
76604;SDS011;65496;50.978;16.998;2023-03-13T00:38:33;3.58;;;2.72;;
76604;SDS011;65496;50.978;16.998;2023-03-13T00:41:03;4.90;;;2.42;;
76604;SDS011;65496;50.978;16.998;2023-03-13T00:43:29;4.60;;;2.53;;
76604;SDS011;65496;50.978;16.998;2023-03-13T00:45:56;3.13;;;2.30;;
76604;SDS011;65496;50.978;16.998;2023-03-13T00:48:22;3.88;;;2.60;;
76604;SDS011;65496;50.978;16.998;2023-03-13T00:50:49;3.33;;;2.30;;
76604;SDS011;65496;50.978;16.998;2023-03-13T00:53:15;4.25;;;2.50;;
76604;SDS011;65496;50.978;16.998;2023-03-13T00:55:51;3.60;;;2.20;;
76604;SDS011;65496;50.978;16.998;2023-03-13T00:58:18;3.30;;;2.33;;
76604;SDS011;65496;50.978;16.998;2023-03-13T01:00:44;4.47;;;2.47;;
76604;SDS011;65496;50.978;16.998;2023-03-13T01:03:10;3.92;;;2.40;;
76604;SDS011;65496;50.978;16.998;2023-03-13T01:05:36;3.65;;;2.42;;
76604;SDS011;65496;50.978;16.998;2023-03-13T01:08:02;3.50;;;2.50;;
76604;SDS011;65496;50.978;16.998;2023-03-13T01:10:28;3.28;;;2.38;;
76604;SDS011;65496;50.978;16.998;2023-03-13T01:12:54;3.83;;;2.40;;
76604;SDS011;65496;50.978;16.998;2023-03-13T01:15:20;3.60;;;2.17;;
76604;SDS011;65496;50.978;16.998;2023-03-13T01:17:46;3.80;;;2.40;;
76604;SDS011;65496;50.978;16.998;2023-03-13T01:20:13;3.17;;;2.10;;
76604;SDS011;65496;50.978;16.998;2023-03-13T01:22:39;3.38;;;2.10;;
76604;SDS011;65496;50.978;16.998;2023-03-13T01:25:05;2.78;;;2.33;;
76604;SDS011;65496;50.978;16.998;2023-03-13T01:27:31;2.78;;;2.00;;
76604;SDS011;65496;50.978;16.998;2023-03-13T01:29:58;3.10;;;2.20;;
76604;SDS011;65496;50.978;16.998;2023-03-13T01:32:23;3.47;;;2.55;;
76604;SDS011;65496;50.978;16.998;2023-03-13T01:34:50;3.55;;;2.47;;
76604;SDS011;65496;50.978;16.998;2023-03-13T01:37:16;3.13;;;2.03;;
76604;SDS011;65496;50.978;16.998;2023-03-13T01:39:42;3.83;;;2.33;;
76604;SDS011;65496;50.978;16.998;2023-03-13T01:42:08;2.65;;;1.98;;
76604;SDS011;65496;50.978;16.998;2023-03-13T01:44:50;3.17;;;1.90;;
76604;SDS011;65496;50.978;16.998;2023-03-13T01:47:18;3.05;;;1.90;;
76604;SDS011;65496;50.978;16.998;2023-03-13T01:49:44;2.80;;;2.15;;
76604;SDS011;65496;50.978;16.998;2023-03-13T01:52:13;2.50;;;2.00;;
76604;SDS011;65496;50.978;16.998;2023-03-13T01:54:46;2.97;;;2.10;;
76604;SDS011;65496;50.978;16.998;2023-03-13T01:57:28;3.22;;;2.30;;
76604;SDS011;65496;50.978;16.998;2023-03-13T02:00:08;3.08;;;2.10;;
76604;SDS011;65496;50.978;16.998;2023-03-13T02:02:37;2.60;;;2.15;;
76604;SDS011;65496;50.978;16.998;2023-03-13T02:05:07;3.17;;;2.35;;
76604;SDS011;65496;50.978;16.998;2023-03-13T02:07:36;3.28;;;2.20;;
76604;SDS011;65496;50.978;16.998;2023-03-13T02:10:06;2.80;;;2.03;;
76604;SDS011;65496;50.978;16.998;2023-03-13T02:12:36;2.55;;;2.03;;
76604;SDS011;65496;50.978;16.998;2023-03-13T02:15:05;3.00;;;2.40;;
76604;SDS011;65496;50.978;16.998;2023-03-13T02:17:35;3.65;;;2.03;;
76604;SDS011;65496;50.978;16.998;2023-03-13T02:20:03;2.83;;;2.08;;
76604;SDS011;65496;50.978;16.998;2023-03-13T02:22:36;3.65;;;2.22;;
76604;SDS011;65496;50.978;16.998;2023-03-13T02:27:43;2.58;;;2.08;;
76604;SDS011;65496;50.978;16.998;2023-03-13T02:30:10;2.78;;;2.05;;
76604;SDS011;65496;50.978;16.998;2023-03-13T02:32:38;3.25;;;2.58;;
76604;SDS011;65496;50.978;16.998;2023-03-13T02:35:13;2.70;;;2.00;;
76604;SDS011;65496;50.978;16.998;2023-03-13T02:37:43;2.88;;;2.28;;
76604;SDS011;65496;50.978;16.998;2023-03-13T02:40:14;3.30;;;2.42;;
76604;SDS011;65496;50.978;16.998;2023-03-13T02:42:46;2.63;;;2.10;;
76604;SDS011;65496;50.978;16.998;2023-03-13T02:45:14;2.60;;;2.20;;
76604;SDS011;65496;50.978;16.998;2023-03-13T02:47:41;3.00;;;2.10;;
76604;SDS011;65496;50.978;16.998;2023-03-13T02:50:07;3.40;;;2.20;;
76604;SDS011;65496;50.978;16.998;2023-03-13T02:52:36;3.78;;;2.30;;
76604;SDS011;65496;50.978;16.998;2023-03-13T02:55:08;3.65;;;2.42;;
76604;SDS011;65496;50.978;16.998;2023-03-13T02:57:38;2.92;;;1.83;;
76604;SDS011;65496;50.978;16.998;2023-03-13T03:00:05;3.08;;;2.38;;
76604;SDS011;65496;50.978;16.998;2023-03-13T03:02:36;3.17;;;2.40;;
76604;SDS011;65496;50.978;16.998;2023-03-13T03:05:04;2.92;;;2.17;;
76604;SDS011;65496;50.978;16.998;2023-03-13T03:07:30;3.22;;;2.30;;
76604;SDS011;65496;50.978;16.998;2023-03-13T03:09:56;3.47;;;2.42;;
76604;SDS011;65496;50.978;16.998;2023-03-13T03:12:22;2.95;;;2.25;;
76604;SDS011;65496;50.978;16.998;2023-03-13T03:14:48;2.92;;;2.03;;
76604;SDS011;65496;50.978;16.998;2023-03-13T03:17:14;3.72;;;2.40;;
76604;SDS011;65496;50.978;16.998;2023-03-13T03:19:40;3.13;;;2.38;;
76604;SDS011;65496;50.978;16.998;2023-03-13T03:22:06;3.13;;;2.35;;
76604;SDS011;65496;50.978;16.998;2023-03-13T03:24:33;3.17;;;2.40;;
76604;SDS011;65496;50.978;16.998;2023-03-13T03:26:59;3.58;;;2.35;;
76604;SDS011;65496;50.978;16.998;2023-03-13T03:29:25;3.13;;;2.55;;
76604;SDS011;65496;50.978;16.998;2023-03-13T03:31:52;3.25;;;2.15;;
76604;SDS011;65496;50.978;16.998;2023-03-13T03:34:18;2.90;;;2.30;;
76604;SDS011;65496;50.978;16.998;2023-03-13T03:36:45;3.13;;;2.40;;
76604;SDS011;65496;50.978;16.998;2023-03-13T03:39:11;3.30;;;2.53;;
76604;SDS011;65496;50.978;16.998;2023-03-13T03:41:37;3.45;;;2.40;;
76604;SDS011;65496;50.978;16.998;2023-03-13T03:44:03;3.58;;;2.70;;
76604;SDS011;65496;50.978;16.998;2023-03-13T03:46:30;3.10;;;2.20;;
76604;SDS011;65496;50.978;16.998;2023-03-13T03:48:56;3.65;;;2.45;;
76604;SDS011;65496;50.978;16.998;2023-03-13T03:51:22;2.90;;;2.53;;
76604;SDS011;65496;50.978;16.998;2023-03-13T03:53:48;2.80;;;2.47;;
76604;SDS011;65496;50.978;16.998;2023-03-13T03:56:14;2.97;;;2.20;;
76604;SDS011;65496;50.978;16.998;2023-03-13T03:58:40;3.20;;;2.88;;
76604;SDS011;65496;50.978;16.998;2023-03-13T04:01:06;3.72;;;2.53;;
76604;SDS011;65496;50.978;16.998;2023-03-13T04:03:32;3.10;;;2.72;;
76604;SDS011;65496;50.978;16.998;2023-03-13T04:05:58;3.63;;;2.60;;
76604;SDS011;65496;50.978;16.998;2023-03-13T04:08:24;3.80;;;2.53;;
76604;SDS011;65496;50.978;16.998;2023-03-13T04:10:50;3.35;;;2.60;;
76604;SDS011;65496;50.978;16.998;2023-03-13T04:13:16;3.20;;;2.60;;
76604;SDS011;65496;50.978;16.998;2023-03-13T04:15:42;3.72;;;2.55;;
76604;SDS011;65496;50.978;16.998;2023-03-13T04:18:09;3.88;;;2.97;;
76604;SDS011;65496;50.978;16.998;2023-03-13T04:20:35;3.42;;;2.28;;
76604;SDS011;65496;50.978;16.998;2023-03-13T04:23:01;3.03;;;2.53;;
76604;SDS011;65496;50.978;16.998;2023-03-13T04:25:27;4.07;;;2.45;;
76604;SDS011;65496;50.978;16.998;2023-03-13T04:27:53;2.92;;;2.33;;
76604;SDS011;65496;50.978;16.998;2023-03-13T04:30:19;4.25;;;2.65;;
76604;SDS011;65496;50.978;16.998;2023-03-13T04:32:46;3.00;;;2.58;;
76604;SDS011;65496;50.978;16.998;2023-03-13T04:35:11;3.05;;;2.50;;
76604;SDS011;65496;50.978;16.998;2023-03-13T04:37:38;3.20;;;2.30;;
76604;SDS011;65496;50.978;16.998;2023-03-13T04:40:04;3.38;;;2.55;;
76604;SDS011;65496;50.978;16.998;2023-03-13T04:42:31;3.30;;;2.55;;
76604;SDS011;65496;50.978;16.998;2023-03-13T04:44:57;3.67;;;2.60;;
76604;SDS011;65496;50.978;16.998;2023-03-13T04:47:23;3.55;;;2.45;;
76604;SDS011;65496;50.978;16.998;2023-03-13T04:49:49;3.25;;;2.55;;
76604;SDS011;65496;50.978;16.998;2023-03-13T04:52:15;4.15;;;2.70;;
76604;SDS011;65496;50.978;16.998;2023-03-13T04:54:41;3.67;;;2.38;;
76604;SDS011;65496;50.978;16.998;2023-03-13T04:57:07;2.97;;;2.40;;
76604;SDS011;65496;50.978;16.998;2023-03-13T04:59:33;3.33;;;2.60;;
76604;SDS011;65496;50.978;16.998;2023-03-13T05:01:59;3.58;;;2.65;;
76604;SDS011;65496;50.978;16.998;2023-03-13T05:04:25;3.47;;;2.80;;
76604;SDS011;65496;50.978;16.998;2023-03-13T05:06:52;3.30;;;2.60;;
76604;SDS011;65496;50.978;16.998;2023-03-13T05:09:17;4.05;;;2.63;;
76604;SDS011;65496;50.978;16.998;2023-03-13T05:11:44;4.15;;;2.58;;
76604;SDS011;65496;50.978;16.998;2023-03-13T05:14:09;3.60;;;2.92;;
76604;SDS011;65496;50.978;16.998;2023-03-13T05:16:36;3.63;;;2.60;;
76604;SDS011;65496;50.978;16.998;2023-03-13T05:19:03;3.45;;;2.80;;
76604;SDS011;65496;50.978;16.998;2023-03-13T05:21:29;3.22;;;2.78;;
76604;SDS011;65496;50.978;16.998;2023-03-13T05:23:55;3.95;;;2.50;;
76604;SDS011;65496;50.978;16.998;2023-03-13T05:26:22;4.13;;;2.47;;
76604;SDS011;65496;50.978;16.998;2023-03-13T05:28:47;3.30;;;2.70;;
76604;SDS011;65496;50.978;16.998;2023-03-13T05:31:14;3.22;;;2.70;;
76604;SDS011;65496;50.978;16.998;2023-03-13T05:33:40;4.57;;;2.83;;
76604;SDS011;65496;50.978;16.998;2023-03-13T05:36:06;3.85;;;2.70;;
76604;SDS011;65496;50.978;16.998;2023-03-13T05:38:32;3.67;;;2.70;;
76604;SDS011;65496;50.978;16.998;2023-03-13T05:40:58;3.33;;;2.63;;
76604;SDS011;65496;50.978;16.998;2023-03-13T05:43:24;4.07;;;2.80;;
76604;SDS011;65496;50.978;16.998;2023-03-13T05:45:56;3.88;;;2.80;;
76604;SDS011;65496;50.978;16.998;2023-03-13T05:48:22;3.88;;;2.70;;
76604;SDS011;65496;50.978;16.998;2023-03-13T05:50:49;3.97;;;2.97;;
76604;SDS011;65496;50.978;16.998;2023-03-13T05:53:14;4.15;;;3.20;;
76604;SDS011;65496;50.978;16.998;2023-03-13T05:55:41;3.65;;;2.90;;
76604;SDS011;65496;50.978;16.998;2023-03-13T05:58:07;4.97;;;3.10;;
76604;SDS011;65496;50.978;16.998;2023-03-13T06:00:33;3.67;;;3.22;;
76604;SDS011;65496;50.978;16.998;2023-03-13T06:03:00;4.15;;;3.10;;
76604;SDS011;65496;50.978;16.998;2023-03-13T06:05:26;14.15;;;3.78;;
76604;SDS011;65496;50.978;16.998;2023-03-13T06:07:52;4.72;;;3.00;;
76604;SDS011;65496;50.978;16.998;2023-03-13T06:10:18;4.43;;;3.33;;
76604;SDS011;65496;50.978;16.998;2023-03-13T06:12:50;3.70;;;3.00;;
76604;SDS011;65496;50.978;16.998;2023-03-13T06:15:17;3.13;;;2.72;;
76604;SDS011;65496;50.978;16.998;2023-03-13T06:17:43;3.58;;;2.83;;
76604;SDS011;65496;50.978;16.998;2023-03-13T06:20:09;3.58;;;2.90;;
76604;SDS011;65496;50.978;16.998;2023-03-13T06:22:36;3.47;;;2.95;;
76604;SDS011;65496;50.978;16.998;2023-03-13T06:25:02;5.15;;;3.38;;
76604;SDS011;65496;50.978;16.998;2023-03-13T06:27:28;4.53;;;2.90;;
76604;SDS011;65496;50.978;16.998;2023-03-13T06:29:54;4.72;;;3.03;;
76604;SDS011;65496;50.978;16.998;2023-03-13T06:32:20;5.45;;;2.63;;
76604;SDS011;65496;50.978;16.998;2023-03-13T06:34:47;4.65;;;2.85;;
76604;SDS011;65496;50.978;16.998;2023-03-13T06:37:12;3.70;;;2.63;;
76604;SDS011;65496;50.978;16.998;2023-03-13T06:39:39;4.90;;;2.88;;
76604;SDS011;65496;50.978;16.998;2023-03-13T06:42:05;5.05;;;3.13;;
76604;SDS011;65496;50.978;16.998;2023-03-13T06:44:31;3.70;;;2.83;;
76604;SDS011;65496;50.978;16.998;2023-03-13T06:46:57;4.05;;;2.40;;
76604;SDS011;65496;50.978;16.998;2023-03-13T06:49:23;3.67;;;2.55;;
76604;SDS011;65496;50.978;16.998;2023-03-13T06:51:49;3.85;;;2.42;;
76604;SDS011;65496;50.978;16.998;2023-03-13T06:54:16;3.83;;;2.55;;
76604;SDS011;65496;50.978;16.998;2023-03-13T06:56:41;3.20;;;2.50;;
76604;SDS011;65496;50.978;16.998;2023-03-13T06:59:08;4.53;;;2.70;;
76604;SDS011;65496;50.978;16.998;2023-03-13T07:01:33;4.25;;;2.70;;
76604;SDS011;65496;50.978;16.998;2023-03-13T07:04:00;4.60;;;2.92;;
76604;SDS011;65496;50.978;16.998;2023-03-13T07:06:26;3.42;;;2.65;;
76604;SDS011;65496;50.978;16.998;2023-03-13T07:08:52;3.38;;;2.38;;
76604;SDS011;65496;50.978;16.998;2023-03-13T07:11:18;4.93;;;2.95;;
76604;SDS011;65496;50.978;16.998;2023-03-13T07:13:44;7.88;;;2.67;;
76604;SDS011;65496;50.978;16.998;2023-03-13T07:16:11;3.65;;;2.70;;
76604;SDS011;65496;50.978;16.998;2023-03-13T07:18:38;3.40;;;2.35;;
76604;SDS011;65496;50.978;16.998;2023-03-13T07:21:08;3.97;;;2.50;;
76604;SDS011;65496;50.978;16.998;2023-03-13T07:23:35;3.95;;;2.63;;
76604;SDS011;65496;50.978;16.998;2023-03-13T07:26:02;4.32;;;2.78;;
76604;SDS011;65496;50.978;16.998;2023-03-13T07:28:33;4.00;;;2.70;;
76604;SDS011;65496;50.978;16.998;2023-03-13T07:31:33;4.38;;;2.80;;
76604;SDS011;65496;50.978;16.998;2023-03-13T07:33:54;3.75;;;2.60;;
76604;SDS011;65496;50.978;16.998;2023-03-13T07:36:20;5.30;;;2.60;;
76604;SDS011;65496;50.978;16.998;2023-03-13T07:38:48;4.28;;;2.63;;
76604;SDS011;65496;50.978;16.998;2023-03-13T07:41:14;4.22;;;2.60;;
76604;SDS011;65496;50.978;16.998;2023-03-13T07:43:41;4.45;;;2.63;;
76604;SDS011;65496;50.978;16.998;2023-03-13T07:46:08;6.10;;;3.15;;
76604;SDS011;65496;50.978;16.998;2023-03-13T07:48:37;5.60;;;2.85;;
76604;SDS011;65496;50.978;16.998;2023-03-13T07:51:05;6.70;;;2.95;;
76604;SDS011;65496;50.978;16.998;2023-03-13T07:53:35;6.38;;;2.78;;
76604;SDS011;65496;50.978;16.998;2023-03-13T07:56:02;3.55;;;2.40;;
76604;SDS011;65496;50.978;16.998;2023-03-13T07:58:32;4.75;;;2.63;;
76604;SDS011;65496;50.978;16.998;2023-03-13T08:01:00;4.03;;;2.47;;
76604;SDS011;65496;50.978;16.998;2023-03-13T08:03:33;4.18;;;2.40;;
76604;SDS011;65496;50.978;16.998;2023-03-13T08:05:59;5.43;;;2.70;;
76604;SDS011;65496;50.978;16.998;2023-03-13T08:08:27;5.68;;;2.50;;
76604;SDS011;65496;50.978;16.998;2023-03-13T08:10:58;7.93;;;3.40;;
76604;SDS011;65496;50.978;16.998;2023-03-13T08:13:32;3.25;;;2.38;;
76604;SDS011;65496;50.978;16.998;2023-03-13T08:16:15;3.58;;;2.50;;
76604;SDS011;65496;50.978;16.998;2023-03-13T08:18:47;5.20;;;2.70;;
76604;SDS011;65496;50.978;16.998;2023-03-13T08:21:15;6.03;;;2.63;;
76604;SDS011;65496;50.978;16.998;2023-03-13T08:23:43;5.47;;;2.38;;
76604;SDS011;65496;50.978;16.998;2023-03-13T08:26:11;7.25;;;2.83;;
76604;SDS011;65496;50.978;16.998;2023-03-13T08:28:39;5.47;;;2.58;;
76604;SDS011;65496;50.978;16.998;2023-03-13T08:31:06;3.65;;;2.45;;
76604;SDS011;65496;50.978;16.998;2023-03-13T08:33:36;3.03;;;2.13;;
76604;SDS011;65496;50.978;16.998;2023-03-13T08:36:35;3.88;;;2.20;;
76604;SDS011;65496;50.978;16.998;2023-03-13T08:38:58;4.00;;;2.53;;
76604;SDS011;65496;50.978;16.998;2023-03-13T08:41:25;3.85;;;2.35;;
76604;SDS011;65496;50.978;16.998;2023-03-13T08:43:54;4.20;;;2.55;;
76604;SDS011;65496;50.978;16.998;2023-03-13T08:46:21;4.03;;;2.63;;
76604;SDS011;65496;50.978;16.998;2023-03-13T08:48:51;6.40;;;2.58;;
76604;SDS011;65496;50.978;16.998;2023-03-13T08:51:19;3.70;;;2.20;;
76604;SDS011;65496;50.978;16.998;2023-03-13T08:53:47;4.78;;;2.72;;
76604;SDS011;65496;50.978;16.998;2023-03-13T08:56:14;3.67;;;2.78;;
76604;SDS011;65496;50.978;16.998;2023-03-13T08:58:42;5.50;;;2.28;;
76604;SDS011;65496;50.978;16.998;2023-03-13T09:01:12;3.75;;;2.30;;
76604;SDS011;65496;50.978;16.998;2023-03-13T09:03:40;4.35;;;2.30;;
76604;SDS011;65496;50.978;16.998;2023-03-13T09:06:07;5.07;;;2.70;;
76604;SDS011;65496;50.978;16.998;2023-03-13T09:08:34;4.35;;;2.35;;
76604;SDS011;65496;50.978;16.998;2023-03-13T09:11:02;3.83;;;2.35;;
76604;SDS011;65496;50.978;16.998;2023-03-13T09:13:31;4.38;;;2.40;;
76604;SDS011;65496;50.978;16.998;2023-03-13T09:16:00;4.13;;;2.22;;
76604;SDS011;65496;50.978;16.998;2023-03-13T09:18:31;4.53;;;2.40;;
76604;SDS011;65496;50.978;16.998;2023-03-13T09:20:57;4.82;;;2.33;;
76604;SDS011;65496;50.978;16.998;2023-03-13T09:23:24;3.42;;;2.50;;
76604;SDS011;65496;50.978;16.998;2023-03-13T09:25:54;3.75;;;2.33;;
76604;SDS011;65496;50.978;16.998;2023-03-13T09:28:22;3.50;;;2.20;;
76604;SDS011;65496;50.978;16.998;2023-03-13T09:30:49;3.90;;;2.70;;
76604;SDS011;65496;50.978;16.998;2023-03-13T09:33:16;3.03;;;2.05;;
76604;SDS011;65496;50.978;16.998;2023-03-13T09:35:43;4.00;;;2.58;;
76604;SDS011;65496;50.978;16.998;2023-03-13T09:38:17;4.15;;;2.35;;
76604;SDS011;65496;50.978;16.998;2023-03-13T09:40:47;3.45;;;2.05;;
76604;SDS011;65496;50.978;16.998;2023-03-13T09:43:30;3.67;;;2.35;;
76604;SDS011;65496;50.978;16.998;2023-03-13T09:46:00;5.53;;;2.65;;
76604;SDS011;65496;50.978;16.998;2023-03-13T09:48:37;4.10;;;2.55;;
76604;SDS011;65496;50.978;16.998;2023-03-13T09:54:08;3.50;;;2.35;;
76604;SDS011;65496;50.978;16.998;2023-03-13T09:56:42;4.00;;;2.10;;
76604;SDS011;65496;50.978;16.998;2023-03-13T09:59:15;4.20;;;2.28;;
76604;SDS011;65496;50.978;16.998;2023-03-13T10:01:47;4.57;;;2.42;;
76604;SDS011;65496;50.978;16.998;2023-03-13T10:06:43;3.40;;;2.13;;
76604;SDS011;65496;50.978;16.998;2023-03-13T10:09:16;3.67;;;2.00;;
76604;SDS011;65496;50.978;16.998;2023-03-13T10:11:50;5.25;;;2.22;;
76604;SDS011;65496;50.978;16.998;2023-03-13T10:14:28;4.32;;;2.22;;
76604;SDS011;65496;50.978;16.998;2023-03-13T10:19:45;3.22;;;2.20;;
76604;SDS011;65496;50.978;16.998;2023-03-13T10:22:19;5.30;;;2.63;;
76604;SDS011;65496;50.978;16.998;2023-03-13T10:24:53;3.85;;;2.05;;
76604;SDS011;65496;50.978;16.998;2023-03-13T10:27:23;4.07;;;2.13;;
76604;SDS011;65496;50.978;16.998;2023-03-13T10:29:50;3.55;;;2.10;;
76604;SDS011;65496;50.978;16.998;2023-03-13T10:32:16;5.00;;;2.20;;
76604;SDS011;65496;50.978;16.998;2023-03-13T10:34:51;4.38;;;2.22;;
76604;SDS011;65496;50.978;16.998;2023-03-13T10:37:27;4.15;;;1.92;;
76604;SDS011;65496;50.978;16.998;2023-03-13T10:40:19;3.45;;;1.90;;
76604;SDS011;65496;50.978;16.998;2023-03-13T10:42:50;2.72;;;1.80;;
76604;SDS011;65496;50.978;16.998;2023-03-13T10:45:19;3.67;;;2.10;;
76604;SDS011;65496;50.978;16.998;2023-03-13T10:47:53;3.00;;;1.88;;
76604;SDS011;65496;50.978;16.998;2023-03-13T10:50:22;4.80;;;2.50;;
76604;SDS011;65496;50.978;16.998;2023-03-13T10:52:49;4.00;;;2.20;;
76604;SDS011;65496;50.978;16.998;2023-03-13T10:55:17;2.60;;;1.77;;
76604;SDS011;65496;50.978;16.998;2023-03-13T10:57:51;3.78;;;1.98;;
76604;SDS011;65496;50.978;16.998;2023-03-13T11:00:34;4.72;;;2.33;;
76604;SDS011;65496;50.978;16.998;2023-03-13T11:03:05;2.63;;;1.92;;
76604;SDS011;65496;50.978;16.998;2023-03-13T11:05:40;3.72;;;1.85;;
76604;SDS011;65496;50.978;16.998;2023-03-13T11:08:11;3.13;;;1.88;;
76604;SDS011;65496;50.978;16.998;2023-03-13T11:10:37;4.10;;;2.17;;
76604;SDS011;65496;50.978;16.998;2023-03-13T11:16:20;2.67;;;1.75;;
76604;SDS011;65496;50.978;16.998;2023-03-13T11:25:03;3.47;;;2.15;;
76604;SDS011;65496;50.978;16.998;2023-03-13T11:28:03;3.63;;;2.00;;
76604;SDS011;65496;50.978;16.998;2023-03-13T11:31:12;4.05;;;1.90;;
76604;SDS011;65496;50.978;16.998;2023-03-13T11:39:22;2.97;;;1.83;;
76604;SDS011;65496;50.978;16.998;2023-03-13T11:47:44;3.30;;;2.00;;
76604;SDS011;65496;50.978;16.998;2023-03-13T11:53:18;3.40;;;1.80;;
76604;SDS011;65496;50.978;16.998;2023-03-13T11:56:11;3.10;;;2.08;;
76604;SDS011;65496;50.978;16.998;2023-03-13T12:01:54;3.55;;;1.88;;
76604;SDS011;65496;50.978;16.998;2023-03-13T12:04:42;3.00;;;1.80;;
76604;SDS011;65496;50.978;16.998;2023-03-13T12:09:53;2.63;;;1.73;;
76604;SDS011;65496;50.978;16.998;2023-03-13T12:12:43;2.50;;;1.58;;
76604;SDS011;65496;50.978;16.998;2023-03-13T12:15:28;2.88;;;1.80;;
76604;SDS011;65496;50.978;16.998;2023-03-13T12:23:39;3.50;;;1.70;;
76604;SDS011;65496;50.978;16.998;2023-03-13T12:26:13;3.17;;;1.45;;
76604;SDS011;65496;50.978;16.998;2023-03-13T12:37:03;2.50;;;1.75;;
76604;SDS011;65496;50.978;16.998;2023-03-13T12:39:44;3.25;;;1.70;;
76604;SDS011;65496;50.978;16.998;2023-03-13T12:45:17;2.88;;;1.60;;
76604;SDS011;65496;50.978;16.998;2023-03-13T12:51:05;2.80;;;1.60;;
76604;SDS011;65496;50.978;16.998;2023-03-13T12:53:37;2.67;;;1.35;;
76604;SDS011;65496;50.978;16.998;2023-03-13T12:59:27;4.03;;;1.70;;
76604;SDS011;65496;50.978;16.998;2023-03-13T13:01:58;2.42;;;1.48;;
76604;SDS011;65496;50.978;16.998;2023-03-13T13:04:32;2.50;;;1.60;;
76604;SDS011;65496;50.978;16.998;2023-03-13T13:07:25;2.30;;;1.50;;
76604;SDS011;65496;50.978;16.998;2023-03-13T13:10:00;2.80;;;1.90;;
76604;SDS011;65496;50.978;16.998;2023-03-13T13:12:43;2.92;;;1.65;;
76604;SDS011;65496;50.978;16.998;2023-03-13T13:15:14;2.65;;;1.75;;
76604;SDS011;65496;50.978;16.998;2023-03-13T13:20:39;2.00;;;1.60;;
76604;SDS011;65496;50.978;16.998;2023-03-13T13:23:21;2.55;;;1.63;;
76604;SDS011;65496;50.978;16.998;2023-03-13T13:25:49;2.08;;;1.38;;
76604;SDS011;65496;50.978;16.998;2023-03-13T13:30:46;2.22;;;1.50;;
76604;SDS011;65496;50.978;16.998;2023-03-13T13:38:37;2.45;;;1.50;;
76604;SDS011;65496;50.978;16.998;2023-03-13T13:43:37;2.60;;;1.70;;
76604;SDS011;65496;50.978;16.998;2023-03-13T13:46:29;2.13;;;1.50;;
76604;SDS011;65496;50.978;16.998;2023-03-13T13:51:31;1.85;;;1.30;;
76604;SDS011;65496;50.978;16.998;2023-03-13T13:57:01;1.98;;;1.50;;
76604;SDS011;65496;50.978;16.998;2023-03-13T13:59:41;2.20;;;1.60;;
76604;SDS011;65496;50.978;16.998;2023-03-13T14:02:11;2.40;;;1.60;;
76604;SDS011;65496;50.978;16.998;2023-03-13T14:04:42;2.35;;;1.63;;
76604;SDS011;65496;50.978;16.998;2023-03-13T14:12:51;3.22;;;2.20;;
76604;SDS011;65496;50.978;16.998;2023-03-13T14:15:24;4.40;;;2.45;;
76604;SDS011;65496;50.978;16.998;2023-03-13T14:17:59;3.90;;;2.25;;
76604;SDS011;65496;50.978;16.998;2023-03-13T14:23:15;4.60;;;2.10;;
76604;SDS011;65496;50.978;16.998;2023-03-13T14:28:49;3.90;;;2.40;;
76604;SDS011;65496;50.978;16.998;2023-03-13T14:31:21;3.33;;;2.53;;
76604;SDS011;65496;50.978;16.998;2023-03-13T14:33:54;7.95;;;2.63;;
76604;SDS011;65496;50.978;16.998;2023-03-13T14:36:25;3.92;;;2.00;;
76604;SDS011;65496;50.978;16.998;2023-03-13T14:41:26;3.88;;;2.20;;
76604;SDS011;65496;50.978;16.998;2023-03-13T14:44:13;4.97;;;2.88;;
76604;SDS011;65496;50.978;16.998;2023-03-13T14:46:49;4.75;;;2.28;;
76604;SDS011;65496;50.978;16.998;2023-03-13T14:49:24;3.33;;;2.30;;
76604;SDS011;65496;50.978;16.998;2023-03-13T14:51:58;3.28;;;2.10;;
76604;SDS011;65496;50.978;16.998;2023-03-13T14:54:28;3.25;;;1.92;;
76604;SDS011;65496;50.978;16.998;2023-03-13T14:57:03;3.78;;;1.85;;
76604;SDS011;65496;50.978;16.998;2023-03-13T14:59:37;3.88;;;2.10;;
76604;SDS011;65496;50.978;16.998;2023-03-13T15:02:20;3.05;;;1.83;;
76604;SDS011;65496;50.978;16.998;2023-03-13T15:07:24;4.93;;;2.15;;
76604;SDS011;65496;50.978;16.998;2023-03-13T15:09:53;4.75;;;1.95;;
76604;SDS011;65496;50.978;16.998;2023-03-13T15:12:20;4.93;;;2.05;;
76604;SDS011;65496;50.978;16.998;2023-03-13T15:14:48;3.63;;;2.03;;
76604;SDS011;65496;50.978;16.998;2023-03-13T15:19:55;4.30;;;2.35;;
76604;SDS011;65496;50.978;16.998;2023-03-13T15:22:42;4.30;;;2.40;;
76604;SDS011;65496;50.978;16.998;2023-03-13T15:25:28;5.18;;;2.10;;
76604;SDS011;65496;50.978;16.998;2023-03-13T15:27:55;4.03;;;2.05;;
76604;SDS011;65496;50.978;16.998;2023-03-13T15:30:21;5.85;;;2.08;;
76604;SDS011;65496;50.978;16.998;2023-03-13T15:32:48;5.60;;;2.28;;
76604;SDS011;65496;50.978;16.998;2023-03-13T15:37:52;2.95;;;2.00;;
76604;SDS011;65496;50.978;16.998;2023-03-13T15:40:19;5.80;;;2.05;;
76604;SDS011;65496;50.978;16.998;2023-03-13T15:42:46;3.63;;;1.92;;
76604;SDS011;65496;50.978;16.998;2023-03-13T15:45:12;3.28;;;2.25;;
76604;SDS011;65496;50.978;16.998;2023-03-13T15:47:38;3.65;;;2.20;;
76604;SDS011;65496;50.978;16.998;2023-03-13T15:50:05;5.35;;;2.25;;
76604;SDS011;65496;50.978;16.998;2023-03-13T15:52:43;3.45;;;2.10;;
76604;SDS011;65496;50.978;16.998;2023-03-13T15:55:10;3.42;;;2.15;;
76604;SDS011;65496;50.978;16.998;2023-03-13T15:57:38;4.80;;;2.20;;
76604;SDS011;65496;50.978;16.998;2023-03-13T16:00:17;2.83;;;2.05;;
76604;SDS011;65496;50.978;16.998;2023-03-13T16:02:45;3.10;;;2.00;;
76604;SDS011;65496;50.978;16.998;2023-03-13T16:05:11;4.70;;;2.40;;
76604;SDS011;65496;50.978;16.998;2023-03-13T16:07:38;2.72;;;1.85;;
76604;SDS011;65496;50.978;16.998;2023-03-13T16:10:04;4.75;;;2.03;;
76604;SDS011;65496;50.978;16.998;2023-03-13T16:12:39;2.90;;;1.90;;
76604;SDS011;65496;50.978;16.998;2023-03-13T16:15:06;7.15;;;2.33;;
76604;SDS011;65496;50.978;16.998;2023-03-13T16:17:33;3.85;;;1.73;;
76604;SDS011;65496;50.978;16.998;2023-03-13T16:19:59;3.22;;;2.05;;
76604;SDS011;65496;50.978;16.998;2023-03-13T16:22:25;3.22;;;1.98;;
76604;SDS011;65496;50.978;16.998;2023-03-13T16:24:51;5.40;;;2.20;;
76604;SDS011;65496;50.978;16.998;2023-03-13T16:27:17;2.92;;;1.90;;
76604;SDS011;65496;50.978;16.998;2023-03-13T16:29:45;2.65;;;1.90;;
76604;SDS011;65496;50.978;16.998;2023-03-13T16:32:13;4.25;;;2.03;;